Time;durP1;ratioP1;P1;durP2;ratioP2;P2;SDS_P1;SDS_P2;PMS_P1;PMS_P2;Temp;Humidity;BMP_temperature;BMP_pressure;BME280_temperature;BME280_humidity;BME280_pressure;Samples;Min_cycle;Max_cycle;Signal;HPM_P1;HPM_P2
2022/05/05 00:02:14;;;;;;;14.20;8.23;;;;;;;9.13;77.90;101852.72;5070323;28;20044;-92
2022/05/05 00:04:39;;;;;;;15.27;7.53;;;;;;;9.15;77.25;101842.63;5070649;28;20043;-93
2022/05/05 00:07:04;;;;;;;16.88;7.97;;;;;;;9.19;76.40;101844.63;5071507;28;20040;-92
2022/05/05 00:09:30;;;;;;;18.97;7.70;;;;;;;9.21;76.97;101850.56;5070166;28;20040;-92
2022/05/05 00:14:40;;;;;;;13.20;7.70;;;;;;;9.16;76.69;101849.59;5071563;28;20447;-92
2022/05/05 00:17:11;;;;;;;16.20;8.03;;;;;;;9.17;76.12;101860.06;5071156;28;20048;-91
2022/05/05 00:19:38;;;;;;;14.30;7.32;;;;;;;9.13;76.46;101850.84;5071547;28;20028;-92
2022/05/05 00:22:09;;;;;;;15.90;7.13;;;;;;;9.12;76.94;101848.41;5071130;28;20031;-91
2022/05/05 00:24:36;;;;;;;14.65;7.60;;;;;;;9.17;76.64;101846.69;5071046;28;20032;-93
2022/05/05 00:27:02;;;;;;;15.93;7.68;;;;;;;9.22;76.50;101851.41;5071142;28;20024;-93
2022/05/05 00:29:28;;;;;;;15.35;8.25;;;;;;;9.24;76.52;101852.81;5070955;28;20028;-93
2022/05/05 00:31:53;;;;;;;16.53;7.17;;;;;;;9.30;76.08;101858.31;5070828;28;20032;-91
2022/05/05 00:34:18;;;;;;;13.67;7.13;;;;;;;9.26;75.69;101852.56;5070545;28;20035;-92
2022/05/05 00:36:44;;;;;;;14.20;7.53;;;;;;;9.21;76.27;101849.75;5067917;28;20040;-92
2022/05/05 00:39:14;;;;;;;13.45;6.90;;;;;;;9.18;76.64;101856.34;5067546;28;20039;-92
2022/05/05 00:41:42;;;;;;;17.88;7.32;;;;;;;9.10;76.22;101856.66;5070983;28;20051;-93
2022/05/05 00:44:09;;;;;;;15.57;6.90;;;;;;;9.03;76.93;101854.06;5070500;28;20039;-92
2022/05/05 00:46:35;;;;;;;12.90;7.05;;;;;;;8.97;76.92;101851.44;5070884;28;20367;-92
2022/05/05 00:49:01;;;;;;;15.80;7.38;;;;;;;8.86;76.88;101845.81;5071820;28;20107;-93
2022/05/05 00:51:27;;;;;;;15.68;7.20;;;;;;;8.80;76.94;101841.34;5070616;28;20056;-93
2022/05/05 00:53:54;;;;;;;14.73;7.07;;;;;;;8.67;77.33;101844.13;5071488;28;20029;-93
2022/05/05 00:56:21;;;;;;;17.50;7.50;;;;;;;8.62;77.86;101850.16;5070852;28;20036;-94
2022/05/05 00:58:47;;;;;;;15.95;8.15;;;;;;;8.51;78.48;101853.50;5070414;28;20020;-93
2022/05/05 01:01:20;;;;;;;16.92;7.38;;;;;;;8.38;78.75;101838.41;5071555;28;20085;-92
2022/05/05 01:03:54;;;;;;;14.13;7.15;;;;;;;8.31;78.70;101843.78;5071590;28;20131;-93
2022/05/05 01:06:19;;;;;;;15.75;6.72;;;;;;;8.22;79.05;101843.22;5071883;28;20035;-94
2022/05/05 01:08:54;;;;;;;17.40;7.40;;;;;;;8.21;79.46;101854.13;5071561;28;20024;-92
2022/05/05 01:11:19;;;;;;;17.50;7.32;;;;;;;8.12;79.87;101851.75;5060004;28;20033;-93
2022/05/05 01:13:45;;;;;;;17.37;8.07;;;;;;;8.11;80.70;101849.28;5081818;28;20020;-92
2022/05/05 01:16:10;;;;;;;14.75;7.10;;;;;;;8.11;80.69;101841.25;5080036;28;20017;-92
2022/05/05 01:18:36;;;;;;;18.03;7.53;;;;;;;8.10;80.52;101832.47;5073313;28;20398;-92
2022/05/05 01:21:02;;;;;;;15.73;7.25;;;;;;;8.19;80.74;101846.34;5072377;28;20032;-93
2022/05/05 01:23:28;;;;;;;16.60;7.25;;;;;;;8.25;80.58;101850.00;5071856;28;20013;-93
2022/05/05 01:28:45;;;;;;;18.90;7.50;;;;;;;8.06;81.29;101828.56;5071464;28;20136;-92
2022/05/05 01:31:10;;;;;;;17.33;7.63;;;;;;;8.14;80.87;101843.50;5072862;28;20082;-93
2022/05/05 01:33:35;;;;;;;17.07;7.33;;;;;;;8.14;80.26;101844.31;5072691;28;20481;-92
2022/05/05 01:36:02;;;;;;;18.92;8.40;;;;;;;8.15;81.04;101845.16;5075586;28;20021;-93
2022/05/05 01:38:36;;;;;;;16.60;7.93;;;;;;;8.11;81.48;101838.59;5074769;28;20032;-91
2022/05/05 01:41:10;;;;;;;15.77;7.75;;;;;;;8.04;81.07;101836.78;5075559;28;20416;-92
2022/05/05 01:43:36;;;;;;;14.80;7.82;;;;;;;8.08;81.38;101855.03;5056202;28;20121;-92
2022/05/05 01:46:03;;;;;;;19.48;8.02;;;;;;;8.08;81.26;101853.22;5058710;28;20036;-92
2022/05/05 01:48:29;;;;;;;16.77;7.97;;;;;;;8.10;80.88;101852.97;5076593;28;20075;-92
2022/05/05 01:50:54;;;;;;;16.38;8.20;;;;;;;8.15;80.98;101850.47;5075926;28;20491;-92
2022/05/05 01:53:19;;;;;;;15.20;7.67;;;;;;;8.19;80.99;101851.69;5076870;28;20103;-92
2022/05/05 01:55:45;;;;;;;17.03;7.90;;;;;;;8.24;80.95;101849.16;5076871;28;20029;-92
2022/05/05 01:58:11;;;;;;;15.80;7.80;;;;;;;8.28;80.63;101850.38;5080908;28;20021;-92
2022/05/05 02:00:36;;;;;;;17.93;8.57;;;;;;;8.39;80.46;101850.72;5089829;28;20119;-91
2022/05/05 02:03:01;;;;;;;17.02;7.88;;;;;;;8.39;80.29;101843.53;5095290;28;20025;-91
2022/05/05 02:05:27;;;;;;;14.93;7.70;;;;;;;8.42;80.01;101844.94;5095415;28;20024;-91
2022/05/05 02:07:53;;;;;;;14.10;7.70;;;;;;;8.46;80.10;101852.31;5095111;28;20017;-92
2022/05/05 02:10:21;;;;;;;16.55;7.15;;;;;;;8.47;80.03;101848.59;5094647;28;20021;-92
2022/05/05 02:12:48;;;;;;;16.65;8.48;;;;;;;8.50;80.03;101847.38;5095032;28;20035;-92
2022/05/05 02:15:14;;;;;;;16.98;7.63;;;;;;;8.52;80.12;101856.00;5095049;28;20048;-92
2022/05/05 02:17:42;;;;;;;14.23;7.70;;;;;;;8.53;80.18;101849.59;5091686;28;20111;-93
2022/05/05 02:20:11;;;;;;;20.13;8.13;;;;;;;8.52;80.50;101853.31;5071402;28;20476;-92
2022/05/05 02:22:37;;;;;;;13.90;8.20;;;;;;;8.55;80.54;101855.56;5071707;28;20487;-92
2022/05/05 02:25:02;;;;;;;17.27;7.83;;;;;;;8.54;80.63;101859.25;5085836;28;20289;-92
2022/05/05 02:27:27;;;;;;;13.50;7.93;;;;;;;8.55;81.08;101854.72;5075215;28;20036;-92
2022/05/05 02:29:53;;;;;;;14.20;7.80;;;;;;;8.59;80.53;101854.06;5077432;28;20035;-92
2022/05/05 02:32:19;;;;;;;14.77;7.77;;;;;;;8.60;80.90;101858.38;5076561;28;20020;-91
2022/05/05 02:34:45;;;;;;;17.92;7.68;;;;;;;8.58;80.60;101847.06;5081168;28;20036;-92
2022/05/05 02:39:55;;;;;;;15.20;7.80;;;;;;;8.66;80.80;101850.50;5064746;28;20040;-92
2022/05/05 02:42:21;;;;;;;18.35;8.15;;;;;;;8.64;80.70;101851.56;5075749;28;20036;-92
2022/05/05 02:44:46;;;;;;;17.13;7.73;;;;;;;8.69;80.59;101858.09;5075879;28;20135;-92
2022/05/05 02:47:12;;;;;;;17.08;8.05;;;;;;;8.69;80.14;101855.44;5075408;28;20063;-91
2022/05/05 02:49:37;;;;;;;17.90;7.50;;;;;;;8.72;80.08;101861.13;5075467;28;20059;-92
2022/05/05 02:52:04;;;;;;;14.73;7.65;;;;;;;8.64;79.49;101848.88;5073853;28;20036;-90
2022/05/05 02:54:47;;;;;;;14.60;7.87;;;;;;;8.70;79.49;101862.41;5073084;28;20043;-89
2022/05/05 02:57:20;;;;;;;14.80;7.37;;;;;;;8.68;79.84;101859.13;5072983;28;20321;-89
2022/05/05 02:59:47;;;;;;;20.27;8.02;;;;;;;8.60;80.04;101857.56;5083612;28;20021;-89
2022/05/05 03:02:14;;;;;;;18.42;7.95;;;;;;;8.58;79.70;101857.75;5073413;28;20394;-90
2022/05/05 03:04:39;;;;;;;18.15;8.10;;;;;;;8.54;80.45;101856.59;5066687;28;20545;-90
2022/05/05 03:07:05;;;;;;;16.63;7.85;;;;;;;8.47;80.86;101855.78;5084211;28;20028;-91
2022/05/05 03:09:30;;;;;;;15.50;7.77;;;;;;;8.46;80.61;101854.16;5085800;28;20035;-90
2022/05/05 03:11:55;;;;;;;18.30;7.87;;;;;;;8.43;81.08;101857.25;5084949;28;20040;-91
2022/05/05 03:14:20;;;;;;;16.77;7.97;;;;;;;8.39;81.43;101867.56;5065778;28;20027;-90
2022/05/05 03:16:46;;;;;;;15.67;7.83;;;;;;;8.39;81.12;101858.75;5079048;28;20024;-90
2022/05/05 03:19:11;;;;;;;17.37;7.57;;;;;;;8.37;81.60;101858.94;5073966;28;20024;-90
2022/05/05 03:21:37;;;;;;;15.10;7.72;;;;;;;8.38;81.36;101854.44;5073046;28;20051;-90
2022/05/05 03:24:03;;;;;;;18.97;7.73;;;;;;;8.38;81.43;101865.13;5072427;28;20096;-89
2022/05/05 03:26:29;;;;;;;14.90;7.63;;;;;;;8.39;81.65;101862.22;5072882;28;20463;-90
2022/05/05 03:28:54;;;;;;;16.50;7.47;;;;;;;8.35;81.94;101866.34;5071977;28;20082;-90
2022/05/05 03:31:19;;;;;;;16.13;8.00;;;;;;;8.34;82.06;101864.72;5054575;28;20036;-90
2022/05/05 03:33:44;;;;;;;16.27;7.83;;;;;;;8.31;82.14;101860.63;5053008;28;20075;-89
2022/05/05 03:36:10;;;;;;;13.93;7.97;;;;;;;8.31;82.53;101868.66;5067658;28;20108;-91
2022/05/05 03:38:35;;;;;;;21.55;7.55;;;;;;;8.30;82.59;101869.69;5073805;28;20037;-90
2022/05/05 03:41:01;;;;;;;18.57;8.07;;;;;;;8.29;82.41;101864.56;5070222;28;20040;-90
2022/05/05 03:43:26;;;;;;;16.93;7.73;;;;;;;8.19;82.54;101865.03;5073084;28;20020;-90
2022/05/05 03:45:51;;;;;;;13.23;7.07;;;;;;;8.16;82.94;101868.16;5072429;28;20029;-89
2022/05/05 03:48:17;;;;;;;16.97;8.67;;;;;;;8.12;83.30;101870.44;5071152;28;20115;-90
2022/05/05 03:50:42;;;;;;;17.27;8.20;;;;;;;8.10;83.48;101866.31;5071929;28;20028;-90
2022/05/05 03:53:07;;;;;;;15.00;7.63;;;;;;;7.98;83.79;101869.69;5072872;28;20021;-90
2022/05/05 03:55:33;;;;;;;15.70;7.60;;;;;;;7.94;83.99;101873.00;5073300;28;20020;-92
2022/05/05 03:57:58;;;;;;;17.53;8.37;;;;;;;7.99;84.61;101882.00;5074377;28;20040;-90
2022/05/05 04:00:26;;;;;;;16.53;8.13;;;;;;;7.98;84.96;101887.53;5074750;28;20032;-89
2022/05/05 04:05:36;;;;;;;21.35;8.35;;;;;;;8.08;86.18;101879.91;5077291;28;20537;-90
2022/05/05 04:08:02;;;;;;;16.77;8.82;;;;;;;8.15;85.27;101883.31;5073871;28;20028;-91
2022/05/05 04:10:28;;;;;;;16.50;8.00;;;;;;;8.18;84.79;101884.78;5072757;28;20103;-91
2022/05/05 04:12:54;;;;;;;21.23;7.67;;;;;;;8.26;84.80;101881.81;5070498;28;20299;-88
2022/05/05 04:15:19;;;;;;;15.85;8.80;;;;;;;8.36;84.78;101892.03;5071380;28;20483;-90
2022/05/05 04:17:44;;;;;;;15.73;8.13;;;;;;;8.37;84.65;101890.19;5071573;28;20078;-90
2022/05/05 04:20:10;;;;;;;16.37;8.30;;;;;;;8.45;84.67;101896.09;5069980;28;20035;-91
2022/05/05 04:22:36;;;;;;;20.70;8.00;;;;;;;8.54;84.01;101899.34;5069034;28;20032;-91
2022/05/05 04:25:01;;;;;;;14.97;7.97;;;;;;;8.60;84.00;101900.31;5071052;28;20077;-91
2022/05/05 04:27:26;;;;;;;17.73;8.20;;;;;;;8.57;84.05;101890.06;5070996;28;20032;-91
2022/05/05 04:29:52;;;;;;;16.17;8.13;;;;;;;8.62;84.04;101892.91;5072991;28;20054;-96
2022/05/05 04:32:19;;;;;;;17.67;8.77;;;;;;;8.70;83.41;101897.94;5095916;28;20072;-96
2022/05/05 04:34:45;;;;;;;17.37;8.27;;;;;;;8.75;83.19;101908.00;5096234;28;20025;-96
2022/05/05 04:37:10;;;;;;;16.17;8.57;;;;;;;8.78;83.26;101910.22;5374929;22;20375;-92
2022/05/05 04:39:35;;;;;;;16.50;8.73;;;;;;;8.78;83.23;101907.53;5073742;28;20035;-91
2022/05/05 04:44:36;;;;;;;17.50;8.52;;;;;;;8.68;82.78;101881.31;5993268;22;20043;-96
2022/05/05 04:47:35;;;;;;;17.88;8.88;;;;;;;8.90;83.33;101916.50;5094663;28;20036;-93
2022/05/05 04:50:01;;;;;;;17.60;9.20;;;;;;;8.81;82.82;101901.75;5085021;28;20416;-93
2022/05/05 04:52:27;;;;;;;15.32;8.60;;;;;;;9.00;82.28;101916.00;5090928;28;20038;-94
2022/05/05 04:54:55;;;;;;;18.47;9.30;;;;;;;9.03;82.54;101915.56;5091872;28;20047;-93
2022/05/05 04:57:20;;;;;;;21.47;9.67;;;;;;;9.11;82.37;101919.81;5090834;28;20366;-94
2022/05/05 04:59:46;;;;;;;20.77;9.05;;;;;;;9.14;81.97;101916.66;5083667;28;20024;-94
2022/05/05 05:02:11;;;;;;;24.43;9.93;;;;;;;9.27;81.34;101914.91;5144372;22;20043;-94
2022/05/05 05:04:37;;;;;;;22.03;9.73;;;;;;;9.37;82.22;101926.75;5093393;28;20076;-96
2022/05/05 05:07:02;;;;;;;22.50;9.63;;;;;;;9.43;82.16;101925.03;5082018;28;20475;-94
2022/05/05 05:09:29;;;;;;;21.10;9.63;;;;;;;9.53;81.43;101929.84;5068696;28;20218;-90
2022/05/05 05:11:54;;;;;;;20.52;9.15;;;;;;;9.55;81.01;101925.09;5070085;28;20107;-90
2022/05/05 05:14:20;;;;;;;19.90;9.40;;;;;;;9.59;81.04;101930.81;5067371;28;20051;-91
2022/05/05 05:16:45;;;;;;;18.90;10.13;;;;;;;9.67;80.71;101928.66;5069695;28;20395;-96
2022/05/05 05:19:10;;;;;;;19.60;9.33;;;;;;;9.79;80.38;101942.09;5053021;28;20558;-90
2022/05/05 05:21:35;;;;;;;18.20;9.30;;;;;;;9.81;80.60;101942.69;5049614;28;20024;-88
2022/05/05 05:24:02;;;;;;;18.67;9.87;;;;;;;9.81;80.76;101936.50;5079117;28;20384;-90
2022/05/05 05:26:28;;;;;;;25.35;10.23;;;;;;;9.82;81.17;101944.31;5076098;28;20036;-95
2022/05/05 05:28:53;;;;;;;16.57;9.53;;;;;;;9.92;80.89;101948.31;5093655;28;20036;-96
2022/05/05 05:33:53;;;;;;;25.30;10.10;;;;;;;10.03;80.45;101955.59;6004924;22;20054;-95
2022/05/05 05:54:25;;;;;;;29.07;11.83;;;;;;;11.04;75.30;101970.19;5345054;22;20044;-90
2022/05/05 05:56:50;;;;;;;27.73;11.87;;;;;;;11.15;74.84;101963.19;5090692;28;20345;-90
2022/05/05 05:59:15;;;;;;;26.93;12.63;;;;;;;11.24;74.79;101955.59;5090165;28;20035;-91
2022/05/05 06:04:29;;;;;;;32.10;14.25;;;;;;;11.41;73.30;101966.44;5053852;28;20121;-91
2022/05/05 06:06:55;;;;;;;26.50;13.57;;;;;;;11.41;73.50;101975.28;5089939;28;20083;-95
2022/05/05 06:09:23;;;;;;;33.33;14.00;;;;;;;11.46;72.74;101979.97;5100782;28;20107;-91
2022/05/05 06:11:48;;;;;;;38.08;14.43;;;;;;;11.41;72.50;101974.50;5095961;28;20032;-90
2022/05/05 06:14:13;;;;;;;35.88;14.43;;;;;;;11.40;73.04;101983.59;5098683;28;20099;-95
2022/05/05 06:16:39;;;;;;;34.50;14.33;;;;;;;11.36;73.30;101984.06;5096540;28;20548;-95
2022/05/05 06:19:04;;;;;;;35.00;14.17;;;;;;;11.32;73.67;101988.25;5105276;28;20091;-96
2022/05/05 06:21:29;;;;;;;30.73;13.97;;;;;;;11.26;73.46;101980.31;5104503;28;20135;-95
2022/05/05 06:23:55;;;;;;;28.87;14.40;;;;;;;11.24;74.11;101985.94;5106741;28;20032;-93
2022/05/05 06:26:27;;;;;;;30.55;13.75;;;;;;;11.25;74.00;101989.41;5327994;22;20040;-91
2022/05/05 06:28:54;;;;;;;32.20;14.53;;;;;;;11.30;74.03;101979.66;5077501;28;20035;-92
2022/05/05 06:47:00;;;;;;;;;;;;;;;;;;;;;
2022/05/05 06:49:26;;;;;;;31.13;15.07;;;;;;;12.10;72.22;101965.69;5113946;28;20052;-96
2022/05/05 06:52:04;;;;;;;35.80;14.33;;;;;;;12.40;72.41;101978.09;5090750;28;20036;-92
2022/05/05 06:54:31;;;;;;;37.35;14.23;;;;;;;12.61;70.25;101981.94;5092967;28;20032;-94
2022/05/05 06:56:57;;;;;;;31.55;13.82;;;;;;;12.90;70.18;101997.19;5096208;28;20052;-95
2022/05/05 06:59:22;;;;;;;27.40;13.57;;;;;;;13.17;68.85;101994.63;5099889;28;20486;-94
2022/05/05 07:01:52;;;;;;;31.35;13.80;;;;;;;13.26;67.27;101987.75;5104089;28;20127;-91
2022/05/05 07:07:03;;;;;;;35.53;14.63;;;;;;;13.83;66.63;102006.59;5109136;28;20093;-92
2022/05/05 07:12:22;;;;;;;34.33;15.83;;;;;;;14.67;64.47;102016.06;5060738;28;20056;-93
2022/05/05 07:14:48;;;;;;;28.30;14.90;;;;;;;15.05;63.44;102009.91;5081045;28;20307;-92
2022/05/05 07:17:13;;;;;;;33.23;15.30;;;;;;;15.31;62.38;102020.91;5073035;28;20032;-92
2022/05/05 07:19:40;;;;;;;39.53;17.13;;;;;;;15.58;61.72;102021.59;5073866;28;20050;-93
2022/05/05 07:22:06;;;;;;;36.25;16.58;;;;;;;15.87;61.13;102026.63;5092144;28;20039;-95
2022/05/05 07:24:32;;;;;;;46.40;19.70;;;;;;;16.24;60.47;102024.81;5109292;28;20004;-92
2022/05/05 07:27:02;;;;;;;42.58;21.33;;;;;;;16.62;58.40;102040.84;5102479;28;20034;-96
2022/05/05 07:31:59;;;;;;;55.47;23.63;;;;;;;17.40;56.28;102014.56;5070163;28;20307;-96
2022/05/05 07:39:41;;;;;;;44.95;22.45;;;;;;;17.77;56.09;102032.31;5131502;22;20400;-96
2022/05/05 07:55:29;;;;;;;43.47;23.17;;;;;;;18.39;52.07;102020.34;5206590;22;20289;-96
2022/05/05 07:58:11;;;;;;;49.17;23.90;;;;;;;18.33;52.57;102021.47;5060212;28;20045;-96
2022/05/05 08:00:37;;;;;;;41.78;23.02;;;;;;;18.25;52.60;102026.41;5050652;28;20167;-95
2022/05/05 08:03:31;;;;;;;;;;;;;;;;;;;;;
2022/05/05 08:08:32;;;;;;;42.13;22.83;;;;;;;18.28;52.58;102058.38;5244713;22;20072;-96
2022/05/05 08:10:57;;;;;;;42.30;22.47;;;;;;;18.12;53.76;102049.53;5034324;28;20436;-96
2022/05/05 08:13:22;;;;;;;47.20;23.00;;;;;;;18.17;52.71;102052.22;5031528;28;20535;-92
2022/05/05 08:15:48;;;;;;;41.60;22.52;;;;;;;18.20;53.51;102055.44;5024268;28;20537;-89
2022/05/05 08:18:13;;;;;;;43.07;23.03;;;;;;;18.05;52.65;102054.44;5004505;28;20490;-93
2022/05/05 08:20:39;;;;;;;48.03;23.63;;;;;;;17.89;53.45;102055.56;5002936;28;20088;-92
2022/05/05 08:23:05;;;;;;;47.20;24.63;;;;;;;17.94;53.07;102058.28;5008921;28;20049;-94
2022/05/05 08:28:29;;;;;;;47.53;23.58;;;;;;;18.09;53.17;102068.25;5011583;28;20045;-94
2022/05/05 08:30:56;;;;;;;43.10;23.87;;;;;;;18.06;52.83;102066.13;5010820;28;20439;-93
2022/05/05 08:33:24;;;;;;;41.33;23.83;;;;;;;18.15;53.16;102067.16;5045802;22;20340;-96
2022/05/05 08:35:49;;;;;;;44.25;23.20;;;;;;;18.40;52.20;102068.09;5014832;28;20489;-94
2022/05/05 08:38:20;;;;;;;47.58;22.92;;;;;;;18.53;51.89;102067.47;5014508;28;20061;-95
2022/05/05 08:40:47;;;;;;;43.88;23.45;;;;;;;18.41;51.53;102070.53;5009111;28;20048;-94
2022/05/05 08:43:13;;;;;;;46.45;24.10;;;;;;;18.64;52.16;102081.78;5023696;28;20052;-93
2022/05/05 08:45:39;;;;;;;43.57;23.37;;;;;;;18.56;51.12;102071.50;5131261;22;20062;-94
2022/05/05 08:48:10;;;;;;;46.60;24.40;;;;;;;18.60;51.78;102084.25;5073138;28;20279;-96
2022/05/05 08:50:37;;;;;;;44.28;23.95;;;;;;;18.58;51.49;102093.75;5074246;28;20032;-96
2022/05/05 08:53:13;;;;;;;45.47;24.65;;;;;;;18.54;52.16;102088.09;5076109;28;20044;-95
2022/05/05 08:55:38;;;;;;;45.08;25.58;;;;;;;18.55;51.63;102081.56;5058726;28;20039;-96
2022/05/05 08:58:05;;;;;;;43.80;23.67;;;;;;;18.75;51.32;102082.53;5036788;28;20033;-96
2022/05/05 09:00:34;;;;;;;43.47;24.17;;;;;;;19.11;51.41;102095.84;5037248;28;20048;-92
2022/05/05 09:03:00;;;;;;;47.15;24.48;;;;;;;19.49;49.07;102087.88;5029899;28;20172;-92
2022/05/05 09:05:47;;;;;;;50.78;24.42;;;;;;;19.82;49.76;102090.78;5033148;28;20091;-93
2022/05/05 09:08:28;;;;;;;44.97;24.00;;;;;;;20.00;48.43;102088.41;5027272;28;20105;-93
2022/05/05 09:10:56;;;;;;;48.23;25.67;;;;;;;20.17;48.58;102092.56;5030266;28;20304;-92
2022/05/05 09:13:25;;;;;;;48.28;24.80;;;;;;;20.39;46.83;102097.41;5031324;28;20024;-92
2022/05/05 09:15:53;;;;;;;47.83;25.20;;;;;;;20.47;45.92;102093.22;5042389;22;20041;-92
2022/05/05 09:18:28;;;;;;;43.65;25.08;;;;;;;20.65;47.10;102097.84;5050957;28;20399;-93
2022/05/05 09:20:55;;;;;;;46.35;24.15;;;;;;;21.00;46.01;102098.41;5050139;28;20037;-92
2022/05/05 09:24:34;;;;;;;47.63;25.48;;;;;;;21.36;46.65;102102.44;5033715;28;20028;-95
2022/05/05 09:26:43;;;;;;;44.22;25.35;;;;;;;21.33;45.86;102106.59;5576089;22;20623;-91
2022/05/05 09:29:21;;;;;;;47.75;25.52;;;;;;;20.93;45.77;102103.44;5041777;28;20498;-93
2022/05/05 09:31:48;;;;;;;47.30;26.05;;;;;;;20.58;46.11;102102.88;5030838;28;20025;-94
2022/05/05 09:34:19;;;;;;;43.07;24.40;;;;;;;20.76;46.24;102105.91;5033111;28;20042;-96
2022/05/05 09:36:47;;;;;;;44.63;26.53;;;;;;;21.06;45.73;102106.50;5053195;28;20284;-94
2022/05/05 09:39:13;;;;;;;40.72;23.85;;;;;;;21.10;44.33;102102.88;5063402;28;20101;-95
2022/05/05 09:41:45;;;;;;;42.38;24.27;;;;;;;21.06;45.60;102101.06;5044253;28;20038;-94
2022/05/05 09:46:46;;;;;;;48.60;26.95;;;;;;;20.97;43.84;102090.03;5105789;22;20045;-96
2022/05/05 09:49:20;;;;;;;50.65;25.88;;;;;;;21.00;44.41;102106.59;5058435;28;20037;-93
2022/05/05 09:57:49;;;;;;;47.20;25.60;;;;;;;20.63;44.92;102119.16;5040164;28;20358;-93
2022/05/05 10:01:04;;;;;;;43.08;25.80;;;;;;;20.98;45.41;102121.63;5038872;28;20030;-94
2022/05/05 10:04:03;;;;;;;45.33;24.95;;;;;;;21.02;45.48;102131.63;5032715;28;20439;-95
2022/05/05 10:06:30;;;;;;;44.55;24.95;;;;;;;21.33;43.42;102125.66;5027295;28;20033;-94
2022/05/05 10:09:00;;;;;;;42.35;23.27;;;;;;;21.63;43.89;102125.44;5043522;28;20017;-93
2022/05/05 10:11:26;;;;;;;40.92;24.65;;;;;;;21.80;44.12;102118.56;5027901;28;20030;-91
2022/05/05 10:13:52;;;;;;;50.27;27.17;;;;;;;21.87;43.60;102125.22;5024973;28;20033;-91
2022/05/05 10:16:20;;;;;;;49.63;27.35;;;;;;;22.23;42.12;102134.59;5021348;28;20033;-92
2022/05/05 10:18:46;;;;;;;49.58;26.33;;;;;;;22.73;41.34;102122.06;5019811;28;20025;-92
2022/05/05 10:21:35;;;;;;;42.33;23.77;;;;;;;23.27;41.03;102125.66;5018481;28;20120;-95
2022/05/05 10:24:07;;;;;;;44.80;24.58;;;;;;;23.67;40.91;102116.66;5026505;28;20021;-93
2022/05/05 10:26:33;;;;;;;49.35;28.10;;;;;;;23.87;38.00;102114.47;5025014;28;20113;-91
2022/05/05 10:29:02;;;;;;;44.85;27.17;;;;;;;23.77;37.72;102121.03;5032067;28;20049;-91
2022/05/05 10:31:30;;;;;;;43.55;27.25;;;;;;;23.60;38.56;102110.81;5056399;22;20590;-92
2022/05/05 10:34:00;;;;;;;47.20;28.20;;;;;;;22.92;39.02;102113.66;5060572;28;20033;-96
2022/05/05 10:36:27;;;;;;;43.40;27.38;;;;;;;22.90;40.54;102116.72;5070103;28;20029;-96
2022/05/05 10:38:52;;;;;;;38.57;24.83;;;;;;;23.29;40.14;102107.00;5081194;28;20031;-96
2022/05/05 10:41:31;;;;;;;43.90;25.23;;;;;;;23.68;40.45;102118.28;5082538;28;20346;-95
2022/05/05 10:44:25;;;;;;;49.05;27.48;;;;;;;24.06;39.82;102122.41;5081866;28;20029;-96
2022/05/05 10:46:53;;;;;;;44.95;26.98;;;;;;;24.12;37.45;102120.31;5076587;28;20021;-96
2022/05/05 10:49:34;;;;;;;45.40;29.42;;;;;;;23.46;39.16;102112.88;5059032;28;20047;-95
2022/05/05 10:52:09;;;;;;;51.67;28.65;;;;;;;23.26;39.30;102115.03;5045960;28;20087;-96
2022/05/05 10:54:36;;;;;;;47.03;28.40;;;;;;;22.89;39.44;102106.09;5156000;22;20071;-95
2022/05/05 10:57:31;;;;;;;41.30;26.90;;;;;;;23.27;39.96;102114.72;5069268;28;20295;-96
2022/05/05 11:00:20;;;;;;;43.40;25.60;;;;;;;23.41;39.77;102089.19;5078614;28;20005;-96
2022/05/05 11:02:58;;;;;;;43.38;25.08;;;;;;;23.93;39.00;102118.66;5068180;28;20044;-95
2022/05/05 11:05:24;;;;;;;42.97;25.83;;;;;;;24.34;38.68;102122.16;5056031;28;20028;-96
2022/05/05 11:07:51;;;;;;;42.50;26.98;;;;;;;24.28;36.05;102093.28;5046424;28;20017;-96
2022/05/05 11:10:38;;;;;;;37.45;25.23;;;;;;;24.40;37.44;102120.84;5041249;28;20017;-96
2022/05/05 11:13:04;;;;;;;42.38;28.17;;;;;;;23.80;36.73;102111.38;5032166;28;20021;-96
2022/05/05 11:21:32;;;;;;;41.20;26.55;;;;;;;23.83;37.95;102116.22;5034964;28;20052;-94
2022/05/05 11:24:00;;;;;;;39.35;26.13;;;;;;;23.68;37.18;102115.53;5038984;28;20021;-95
2022/05/05 11:26:26;;;;;;;39.38;25.73;;;;;;;23.46;37.27;102110.13;5049020;28;20022;-94
2022/05/05 11:28:53;;;;;;;41.80;25.23;;;;;;;23.40;37.48;102117.66;5038286;28;20025;-95
2022/05/05 11:31:36;;;;;;;37.90;25.52;;;;;;;23.65;38.36;102109.88;5044821;28;20065;-96
2022/05/05 11:34:03;;;;;;;41.03;26.13;;;;;;;23.18;36.94;102104.81;5026846;28;20087;-94
2022/05/05 11:36:34;;;;;;;38.70;24.73;;;;;;;22.72;38.56;102115.78;5022086;28;20300;-93
2022/05/05 11:38:59;;;;;;;38.33;23.40;;;;;;;22.80;39.02;102104.13;5052684;28;20032;-94
2022/05/05 11:41:25;;;;;;;39.20;24.13;;;;;;;22.82;39.42;102106.53;5049210;28;20037;-96
2022/05/05 11:46:38;;;;;;;33.40;22.65;;;;;;;22.75;39.06;102111.59;5309809;22;20056;-96
2022/05/05 11:49:05;;;;;;;33.90;22.73;;;;;;;22.63;39.00;102106.72;5067355;28;20376;-96
2022/05/05 11:51:33;;;;;;;37.33;22.87;;;;;;;22.58;39.22;102090.44;5067290;28;20271;-96
2022/05/05 11:54:02;;;;;;;31.90;20.77;;;;;;;22.78;39.69;102087.22;5062916;28;20040;-95
2022/05/05 11:56:28;;;;;;;29.38;20.40;;;;;;;23.13;37.94;102108.47;5038171;28;20037;-91
2022/05/05 12:01:39;;;;;;;30.52;20.50;;;;;;;24.30;35.72;102100.06;5017884;28;20135;-92
2022/05/05 12:04:14;;;;;;;30.58;20.92;;;;;;;24.52;36.68;102102.97;5031553;28;20029;-93
2022/05/05 12:06:40;;;;;;;32.83;19.67;;;;;;;24.15;34.44;102089.56;5031819;28;20078;-92
2022/05/05 12:09:09;;;;;;;32.10;20.10;;;;;;;23.98;36.34;102093.13;5030800;28;20504;-91
2022/05/05 12:11:35;;;;;;;32.53;20.63;;;;;;;23.93;35.59;102098.69;5031718;28;20066;-93
2022/05/05 12:14:06;;;;;;;29.88;20.17;;;;;;;23.93;34.58;102096.75;5041048;28;20022;-91
2022/05/05 12:16:36;;;;;;;25.88;18.50;;;;;;;24.14;35.88;102085.22;5027542;28;20022;-91
2022/05/05 12:19:12;;;;;;;31.60;19.70;;;;;;;24.51;36.03;102091.19;5016336;28;20033;-93
2022/05/05 12:21:53;;;;;;;33.00;22.05;;;;;;;24.70;35.70;102084.56;5033047;28;20075;-93
2022/05/05 12:24:23;;;;;;;30.73;21.85;;;;;;;24.72;35.45;102094.13;5015366;28;20041;-92
2022/05/05 12:26:49;;;;;;;32.58;20.77;;;;;;;24.27;36.50;102091.69;5041013;28;20014;-91
2022/05/05 12:31:55;;;;;;;30.63;20.52;;;;;;;23.60;36.28;102083.47;5456701;22;20041;-96
2022/05/05 12:34:22;;;;;;;29.80;20.70;;;;;;;23.34;36.48;102080.63;5037038;28;20021;-93
2022/05/05 12:36:48;;;;;;;31.87;21.03;;;;;;;23.29;36.89;102087.06;5031179;28;20276;-90
2022/05/05 12:39:14;;;;;;;30.42;21.38;;;;;;;23.37;36.88;102080.81;5026994;28;20038;-91
2022/05/05 12:41:59;;;;;;;32.83;22.10;;;;;;;23.61;37.63;102087.03;5030228;28;20051;-91
2022/05/05 12:44:32;;;;;;;32.00;20.37;;;;;;;23.95;36.09;102085.50;5033186;28;20355;-94
2022/05/05 12:47:03;;;;;;;27.52;19.70;;;;;;;24.59;35.99;102079.44;5032255;28;20056;-94
2022/05/05 12:49:44;;;;;;;33.42;19.65;;;;;;;24.94;36.48;102090.38;5024815;28;20042;-94
2022/05/05 13:00:24;;;;;;;35.42;21.75;;;;;;;23.89;35.87;102090.31;5031584;28;20095;-93
2022/05/05 13:02:50;;;;;;;30.27;20.90;;;;;;;23.31;37.51;102082.09;5032267;28;20030;-93
2022/05/05 13:05:17;;;;;;;31.83;22.07;;;;;;;23.09;36.50;102102.84;5040150;28;20030;-93
2022/05/05 13:07:42;;;;;;;32.58;21.15;;;;;;;23.04;37.94;102092.03;5031370;28;20100;-93
2022/05/05 13:10:10;;;;;;;32.87;23.53;;;;;;;23.24;37.72;102088.00;5033687;28;20550;-95
2022/05/05 13:12:35;;;;;;;38.30;23.27;;;;;;;23.15;37.75;102092.56;5043768;28;20280;-94
2022/05/05 13:15:00;;;;;;;35.22;23.80;;;;;;;22.85;37.71;102092.25;5052477;28;20020;-91
2022/05/05 13:17:26;;;;;;;31.63;20.20;;;;;;;22.95;38.06;102093.91;5043672;28;20069;-92
2022/05/05 13:19:51;;;;;;;33.07;22.70;;;;;;;23.29;37.16;102087.84;5048539;28;20036;-93
2022/05/05 13:22:18;;;;;;;32.25;23.15;;;;;;;23.34;37.48;102103.34;5050232;28;20147;-93